sensor_id;sensor_type;location;lat;lon;timestamp;P1;durP1;ratioP1;P2;durP2;ratioP2
84412;SDS011;74611;53.106;8.778;2024-03-22T00:00:41;4.78;;;1.58;;
84412;SDS011;74611;53.106;8.778;2024-03-22T00:03:06;8.27;;;1.85;;
84412;SDS011;74611;53.106;8.778;2024-03-22T00:05:38;7.93;;;2.15;;
84412;SDS011;74611;53.106;8.778;2024-03-22T00:11:32;2.80;;;1.35;;
84412;SDS011;74611;53.106;8.778;2024-03-22T00:13:58;6.25;;;2.30;;
84412;SDS011;74611;53.106;8.778;2024-03-22T00:16:24;3.63;;;1.40;;
84412;SDS011;74611;53.106;8.778;2024-03-22T00:18:49;6.93;;;2.20;;
84412;SDS011;74611;53.106;8.778;2024-03-22T00:21:15;14.65;;;2.72;;
84412;SDS011;74611;53.106;8.778;2024-03-22T00:23:41;6.95;;;2.15;;
84412;SDS011;74611;53.106;8.778;2024-03-22T00:26:07;9.38;;;3.25;;
84412;SDS011;74611;53.106;8.778;2024-03-22T00:28:32;10.07;;;3.10;;
84412;SDS011;74611;53.106;8.778;2024-03-22T00:30:58;5.93;;;2.35;;
84412;SDS011;74611;53.106;8.778;2024-03-22T00:33:24;7.43;;;2.70;;
84412;SDS011;74611;53.106;8.778;2024-03-22T00:35:49;6.78;;;2.50;;
84412;SDS011;74611;53.106;8.778;2024-03-22T00:38:15;6.57;;;2.30;;
84412;SDS011;74611;53.106;8.778;2024-03-22T00:40:40;7.95;;;2.78;;
84412;SDS011;74611;53.106;8.778;2024-03-22T00:43:06;9.70;;;2.72;;
84412;SDS011;74611;53.106;8.778;2024-03-22T00:45:31;7.32;;;2.05;;
84412;SDS011;74611;53.106;8.778;2024-03-22T00:47:57;8.07;;;2.58;;
84412;SDS011;74611;53.106;8.778;2024-03-22T00:50:22;7.72;;;2.25;;
84412;SDS011;74611;53.106;8.778;2024-03-22T00:52:49;6.13;;;2.40;;
84412;SDS011;74611;53.106;8.778;2024-03-22T00:55:15;8.32;;;2.60;;
84412;SDS011;74611;53.106;8.778;2024-03-22T00:57:41;6.90;;;2.25;;
84412;SDS011;74611;53.106;8.778;2024-03-22T01:00:07;7.85;;;2.90;;
84412;SDS011;74611;53.106;8.778;2024-03-22T01:02:33;9.40;;;2.80;;
84412;SDS011;74611;53.106;8.778;2024-03-22T01:04:58;10.95;;;3.47;;
84412;SDS011;74611;53.106;8.778;2024-03-22T01:07:24;7.45;;;2.60;;
84412;SDS011;74611;53.106;8.778;2024-03-22T01:09:49;7.43;;;2.75;;
84412;SDS011;74611;53.106;8.778;2024-03-22T01:12:15;12.90;;;3.45;;
84412;SDS011;74611;53.106;8.778;2024-03-22T01:14:40;6.05;;;2.33;;
84412;SDS011;74611;53.106;8.778;2024-03-22T01:17:06;4.60;;;1.98;;
84412;SDS011;74611;53.106;8.778;2024-03-22T01:19:32;10.90;;;3.17;;
84412;SDS011;74611;53.106;8.778;2024-03-22T01:21:58;8.68;;;3.17;;
84412;SDS011;74611;53.106;8.778;2024-03-22T01:24:24;9.32;;;3.25;;
84412;SDS011;74611;53.106;8.778;2024-03-22T01:26:49;8.18;;;2.72;;
84412;SDS011;74611;53.106;8.778;2024-03-22T01:29:15;9.27;;;3.42;;
84412;SDS011;74611;53.106;8.778;2024-03-22T01:31:40;8.68;;;2.80;;
84412;SDS011;74611;53.106;8.778;2024-03-22T01:34:06;8.48;;;2.88;;
84412;SDS011;74611;53.106;8.778;2024-03-22T01:36:31;10.00;;;3.47;;
84412;SDS011;74611;53.106;8.778;2024-03-22T01:38:57;8.27;;;2.92;;
84412;SDS011;74611;53.106;8.778;2024-03-22T01:41:22;11.02;;;3.40;;
84412;SDS011;74611;53.106;8.778;2024-03-22T01:43:49;9.20;;;3.20;;
84412;SDS011;74611;53.106;8.778;2024-03-22T01:46:14;8.55;;;2.55;;
84412;SDS011;74611;53.106;8.778;2024-03-22T01:48:40;9.43;;;3.30;;
84412;SDS011;74611;53.106;8.778;2024-03-22T01:51:06;10.05;;;3.53;;
84412;SDS011;74611;53.106;8.778;2024-03-22T01:53:32;9.95;;;2.80;;
84412;SDS011;74611;53.106;8.778;2024-03-22T01:55:59;9.30;;;3.75;;
84412;SDS011;74611;53.106;8.778;2024-03-22T01:58:25;8.73;;;3.00;;
84412;SDS011;74611;53.106;8.778;2024-03-22T02:00:51;10.43;;;3.72;;
84412;SDS011;74611;53.106;8.778;2024-03-22T02:03:17;8.98;;;3.15;;
84412;SDS011;74611;53.106;8.778;2024-03-22T02:05:42;20.10;;;4.53;;
84412;SDS011;74611;53.106;8.778;2024-03-22T02:08:11;14.48;;;3.90;;
84412;SDS011;74611;53.106;8.778;2024-03-22T02:10:36;11.93;;;4.70;;
84412;SDS011;74611;53.106;8.778;2024-03-22T02:13:02;8.90;;;3.22;;
84412;SDS011;74611;53.106;8.778;2024-03-22T02:15:28;10.85;;;4.18;;
84412;SDS011;74611;53.106;8.778;2024-03-22T02:17:53;11.23;;;3.60;;
84412;SDS011;74611;53.106;8.778;2024-03-22T02:20:19;13.07;;;4.32;;
84412;SDS011;74611;53.106;8.778;2024-03-22T02:22:44;9.30;;;3.92;;
84412;SDS011;74611;53.106;8.778;2024-03-22T02:25:10;9.18;;;3.33;;
84412;SDS011;74611;53.106;8.778;2024-03-22T02:27:37;11.27;;;4.32;;
84412;SDS011;74611;53.106;8.778;2024-03-22T02:30:03;12.77;;;4.30;;
84412;SDS011;74611;53.106;8.778;2024-03-22T02:32:30;9.27;;;3.97;;
84412;SDS011;74611;53.106;8.778;2024-03-22T02:34:55;9.52;;;4.05;;
84412;SDS011;74611;53.106;8.778;2024-03-22T02:37:21;11.43;;;4.53;;
84412;SDS011;74611;53.106;8.778;2024-03-22T02:39:46;12.20;;;4.30;;
84412;SDS011;74611;53.106;8.778;2024-03-22T02:42:12;11.95;;;4.85;;
84412;SDS011;74611;53.106;8.778;2024-03-22T02:44:37;12.48;;;4.72;;
84412;SDS011;74611;53.106;8.778;2024-03-22T02:47:07;11.70;;;4.57;;
84412;SDS011;74611;53.106;8.778;2024-03-22T02:49:34;15.27;;;5.05;;
84412;SDS011;74611;53.106;8.778;2024-03-22T02:52:00;16.60;;;4.75;;
84412;SDS011;74611;53.106;8.778;2024-03-22T02:54:25;12.15;;;4.70;;
84412;SDS011;74611;53.106;8.778;2024-03-22T02:56:51;11.90;;;4.50;;
84412;SDS011;74611;53.106;8.778;2024-03-22T02:59:17;15.68;;;6.65;;
84412;SDS011;74611;53.106;8.778;2024-03-22T03:01:43;13.45;;;4.65;;
84412;SDS011;74611;53.106;8.778;2024-03-22T03:04:08;11.73;;;4.65;;
84412;SDS011;74611;53.106;8.778;2024-03-22T03:06:34;10.68;;;4.45;;
84412;SDS011;74611;53.106;8.778;2024-03-22T03:08:59;16.58;;;5.57;;
84412;SDS011;74611;53.106;8.778;2024-03-22T03:11:25;11.13;;;4.18;;
84412;SDS011;74611;53.106;8.778;2024-03-22T03:13:50;13.30;;;5.63;;
84412;SDS011;74611;53.106;8.778;2024-03-22T03:16:16;11.48;;;4.53;;
84412;SDS011;74611;53.106;8.778;2024-03-22T03:18:42;15.30;;;5.18;;
84412;SDS011;74611;53.106;8.778;2024-03-22T03:21:07;19.17;;;6.15;;
84412;SDS011;74611;53.106;8.778;2024-03-22T03:23:33;14.48;;;5.60;;
84412;SDS011;74611;53.106;8.778;2024-03-22T03:26:02;23.33;;;6.65;;
84412;SDS011;74611;53.106;8.778;2024-03-22T03:28:28;16.33;;;5.93;;
84412;SDS011;74611;53.106;8.778;2024-03-22T03:30:53;16.70;;;5.78;;
84412;SDS011;74611;53.106;8.778;2024-03-22T03:33:19;14.55;;;5.80;;
84412;SDS011;74611;53.106;8.778;2024-03-22T03:35:47;15.70;;;6.05;;
84412;SDS011;74611;53.106;8.778;2024-03-22T03:38:13;16.00;;;5.93;;
84412;SDS011;74611;53.106;8.778;2024-03-22T03:40:38;13.48;;;4.78;;
84412;SDS011;74611;53.106;8.778;2024-03-22T03:43:04;15.70;;;5.82;;
84412;SDS011;74611;53.106;8.778;2024-03-22T03:45:30;14.82;;;5.93;;
84412;SDS011;74611;53.106;8.778;2024-03-22T03:47:55;16.40;;;6.45;;
84412;SDS011;74611;53.106;8.778;2024-03-22T03:50:21;13.43;;;5.20;;
84412;SDS011;74611;53.106;8.778;2024-03-22T03:52:47;15.25;;;5.60;;
84412;SDS011;74611;53.106;8.778;2024-03-22T03:55:12;18.48;;;5.00;;
84412;SDS011;74611;53.106;8.778;2024-03-22T03:57:38;16.73;;;6.40;;
84412;SDS011;74611;53.106;8.778;2024-03-22T04:00:04;14.95;;;6.35;;
84412;SDS011;74611;53.106;8.778;2024-03-22T04:02:30;16.52;;;5.82;;
84412;SDS011;74611;53.106;8.778;2024-03-22T04:04:55;19.08;;;7.30;;
84412;SDS011;74611;53.106;8.778;2024-03-22T04:07:21;12.02;;;4.28;;
84412;SDS011;74611;53.106;8.778;2024-03-22T04:09:46;16.00;;;6.43;;
84412;SDS011;74611;53.106;8.778;2024-03-22T04:12:12;15.90;;;6.18;;
84412;SDS011;74611;53.106;8.778;2024-03-22T04:14:38;16.08;;;6.25;;
84412;SDS011;74611;53.106;8.778;2024-03-22T04:17:04;17.23;;;6.10;;
84412;SDS011;74611;53.106;8.778;2024-03-22T04:19:29;15.15;;;6.13;;
84412;SDS011;74611;53.106;8.778;2024-03-22T04:21:55;17.13;;;6.10;;
84412;SDS011;74611;53.106;8.778;2024-03-22T04:24:21;15.18;;;5.95;;
84412;SDS011;74611;53.106;8.778;2024-03-22T04:26:46;17.25;;;5.72;;
84412;SDS011;74611;53.106;8.778;2024-03-22T04:29:12;13.93;;;5.25;;
84412;SDS011;74611;53.106;8.778;2024-03-22T04:31:37;15.23;;;6.07;;
84412;SDS011;74611;53.106;8.778;2024-03-22T04:34:03;14.32;;;5.32;;
84412;SDS011;74611;53.106;8.778;2024-03-22T04:36:30;18.38;;;5.80;;
84412;SDS011;74611;53.106;8.778;2024-03-22T04:38:56;17.83;;;6.40;;
84412;SDS011;74611;53.106;8.778;2024-03-22T04:41:22;19.42;;;6.05;;
84412;SDS011;74611;53.106;8.778;2024-03-22T04:43:47;17.73;;;6.15;;
84412;SDS011;74611;53.106;8.778;2024-03-22T04:46:13;21.70;;;8.57;;
84412;SDS011;74611;53.106;8.778;2024-03-22T04:48:38;17.88;;;5.53;;
84412;SDS011;74611;53.106;8.778;2024-03-22T04:51:04;15.20;;;5.90;;
84412;SDS011;74611;53.106;8.778;2024-03-22T04:53:30;17.50;;;6.43;;
84412;SDS011;74611;53.106;8.778;2024-03-22T04:55:55;15.93;;;6.25;;
84412;SDS011;74611;53.106;8.778;2024-03-22T04:58:21;19.35;;;6.80;;
84412;SDS011;74611;53.106;8.778;2024-03-22T05:00:55;16.95;;;5.68;;
84412;SDS011;74611;53.106;8.778;2024-03-22T05:03:22;17.70;;;5.95;;
84412;SDS011;74611;53.106;8.778;2024-03-22T05:05:47;17.88;;;5.38;;
84412;SDS011;74611;53.106;8.778;2024-03-22T05:08:15;12.50;;;5.25;;
84412;SDS011;74611;53.106;8.778;2024-03-22T05:10:40;13.95;;;4.75;;
84412;SDS011;74611;53.106;8.778;2024-03-22T05:13:07;22.60;;;7.07;;
84412;SDS011;74611;53.106;8.778;2024-03-22T05:15:32;14.32;;;6.35;;
84412;SDS011;74611;53.106;8.778;2024-03-22T05:17:58;17.42;;;6.35;;
84412;SDS011;74611;53.106;8.778;2024-03-22T05:20:24;16.52;;;6.35;;
84412;SDS011;74611;53.106;8.778;2024-03-22T05:22:50;18.48;;;5.82;;
84412;SDS011;74611;53.106;8.778;2024-03-22T05:25:15;16.73;;;6.50;;
84412;SDS011;74611;53.106;8.778;2024-03-22T05:27:41;14.80;;;5.65;;
84412;SDS011;74611;53.106;8.778;2024-03-22T05:30:08;12.52;;;5.47;;
84412;SDS011;74611;53.106;8.778;2024-03-22T05:32:35;20.42;;;6.32;;
84412;SDS011;74611;53.106;8.778;2024-03-22T05:35:00;19.88;;;7.35;;
84412;SDS011;74611;53.106;8.778;2024-03-22T05:37:26;17.45;;;6.47;;
84412;SDS011;74611;53.106;8.778;2024-03-22T05:39:52;16.65;;;5.18;;
84412;SDS011;74611;53.106;8.778;2024-03-22T05:42:17;16.63;;;6.50;;
84412;SDS011;74611;53.106;8.778;2024-03-22T05:44:43;19.70;;;6.40;;
84412;SDS011;74611;53.106;8.778;2024-03-22T05:47:09;22.15;;;6.53;;
84412;SDS011;74611;53.106;8.778;2024-03-22T05:49:35;18.95;;;6.10;;
84412;SDS011;74611;53.106;8.778;2024-03-22T05:52:01;15.13;;;5.72;;
84412;SDS011;74611;53.106;8.778;2024-03-22T05:54:26;14.73;;;5.32;;
84412;SDS011;74611;53.106;8.778;2024-03-22T05:56:52;18.13;;;5.82;;
84412;SDS011;74611;53.106;8.778;2024-03-22T05:59:17;14.55;;;6.40;;
84412;SDS011;74611;53.106;8.778;2024-03-22T06:01:43;15.40;;;5.35;;
84412;SDS011;74611;53.106;8.778;2024-03-22T06:04:09;17.58;;;5.70;;
84412;SDS011;74611;53.106;8.778;2024-03-22T06:06:34;14.85;;;5.25;;
84412;SDS011;74611;53.106;8.778;2024-03-22T06:09:01;15.20;;;5.45;;
84412;SDS011;74611;53.106;8.778;2024-03-22T06:11:34;18.52;;;6.80;;
84412;SDS011;74611;53.106;8.778;2024-03-22T06:14:00;20.50;;;6.85;;
84412;SDS011;74611;53.106;8.778;2024-03-22T06:16:26;17.88;;;6.38;;
84412;SDS011;74611;53.106;8.778;2024-03-22T06:18:52;15.68;;;6.13;;
84412;SDS011;74611;53.106;8.778;2024-03-22T06:21:17;19.95;;;6.85;;
84412;SDS011;74611;53.106;8.778;2024-03-22T06:23:49;19.45;;;6.65;;
84412;SDS011;74611;53.106;8.778;2024-03-22T06:26:15;17.30;;;5.55;;
84412;SDS011;74611;53.106;8.778;2024-03-22T06:28:41;20.08;;;6.97;;
84412;SDS011;74611;53.106;8.778;2024-03-22T06:31:06;5.35;;;2.00;;
84412;SDS011;74611;53.106;8.778;2024-03-22T06:33:33;10.93;;;4.60;;
84412;SDS011;74611;53.106;8.778;2024-03-22T06:35:58;16.60;;;6.90;;
84412;SDS011;74611;53.106;8.778;2024-03-22T06:38:25;22.55;;;6.80;;
84412;SDS011;74611;53.106;8.778;2024-03-22T06:40:51;18.98;;;7.05;;
84412;SDS011;74611;53.106;8.778;2024-03-22T06:43:16;10.75;;;4.00;;
84412;SDS011;74611;53.106;8.778;2024-03-22T06:45:42;19.45;;;6.57;;
84412;SDS011;74611;53.106;8.778;2024-03-22T06:48:07;20.70;;;7.55;;
84412;SDS011;74611;53.106;8.778;2024-03-22T06:50:33;19.00;;;6.90;;
84412;SDS011;74611;53.106;8.778;2024-03-22T06:52:58;21.67;;;6.75;;
84412;SDS011;74611;53.106;8.778;2024-03-22T06:55:24;25.02;;;7.55;;
84412;SDS011;74611;53.106;8.778;2024-03-22T06:57:50;23.48;;;7.75;;
84412;SDS011;74611;53.106;8.778;2024-03-22T07:00:17;21.73;;;6.70;;
84412;SDS011;74611;53.106;8.778;2024-03-22T07:02:43;19.88;;;7.18;;
84412;SDS011;74611;53.106;8.778;2024-03-22T07:05:09;23.35;;;7.72;;
84412;SDS011;74611;53.106;8.778;2024-03-22T07:07:36;19.75;;;7.82;;
84412;SDS011;74611;53.106;8.778;2024-03-22T07:10:02;21.02;;;6.82;;
84412;SDS011;74611;53.106;8.778;2024-03-22T07:12:30;18.67;;;7.70;;
84412;SDS011;74611;53.106;8.778;2024-03-22T07:14:57;18.40;;;6.72;;
84412;SDS011;74611;53.106;8.778;2024-03-22T07:17:22;23.10;;;6.57;;
84412;SDS011;74611;53.106;8.778;2024-03-22T07:19:52;21.77;;;7.32;;
84412;SDS011;74611;53.106;8.778;2024-03-22T07:22:19;20.27;;;6.53;;
84412;SDS011;74611;53.106;8.778;2024-03-22T07:24:45;20.75;;;7.28;;
84412;SDS011;74611;53.106;8.778;2024-03-22T07:27:11;24.60;;;8.05;;
84412;SDS011;74611;53.106;8.778;2024-03-22T07:29:36;28.00;;;8.00;;
84412;SDS011;74611;53.106;8.778;2024-03-22T07:32:03;21.13;;;7.68;;
84412;SDS011;74611;53.106;8.778;2024-03-22T07:34:28;23.45;;;6.88;;
84412;SDS011;74611;53.106;8.778;2024-03-22T07:36:54;26.42;;;8.18;;
84412;SDS011;74611;53.106;8.778;2024-03-22T07:39:20;16.33;;;6.32;;
84412;SDS011;74611;53.106;8.778;2024-03-22T07:41:45;24.50;;;7.00;;
84412;SDS011;74611;53.106;8.778;2024-03-22T07:44:11;18.00;;;6.03;;
84412;SDS011;74611;53.106;8.778;2024-03-22T07:46:36;18.58;;;7.40;;
84412;SDS011;74611;53.106;8.778;2024-03-22T07:49:02;23.15;;;6.97;;
84412;SDS011;74611;53.106;8.778;2024-03-22T07:51:29;24.50;;;7.40;;
84412;SDS011;74611;53.106;8.778;2024-03-22T07:53:55;22.45;;;8.70;;
84412;SDS011;74611;53.106;8.778;2024-03-22T07:56:20;24.10;;;7.32;;
84412;SDS011;74611;53.106;8.778;2024-03-22T07:58:47;23.48;;;8.23;;
84412;SDS011;74611;53.106;8.778;2024-03-22T08:01:12;20.70;;;7.05;;
84412;SDS011;74611;53.106;8.778;2024-03-22T08:03:38;24.80;;;7.93;;
84412;SDS011;74611;53.106;8.778;2024-03-22T08:06:03;20.00;;;6.68;;
84412;SDS011;74611;53.106;8.778;2024-03-22T08:08:29;23.67;;;6.65;;
84412;SDS011;74611;53.106;8.778;2024-03-22T08:10:55;25.52;;;7.32;;
84412;SDS011;74611;53.106;8.778;2024-03-22T08:13:20;21.02;;;7.38;;
84412;SDS011;74611;53.106;8.778;2024-03-22T08:15:46;15.98;;;5.65;;
84412;SDS011;74611;53.106;8.778;2024-03-22T08:18:11;22.73;;;8.23;;
84412;SDS011;74611;53.106;8.778;2024-03-22T08:20:38;24.75;;;7.63;;
84412;SDS011;74611;53.106;8.778;2024-03-22T08:23:07;24.75;;;7.70;;
84412;SDS011;74611;53.106;8.778;2024-03-22T08:25:32;20.50;;;7.28;;
84412;SDS011;74611;53.106;8.778;2024-03-22T08:27:58;15.85;;;5.93;;
84412;SDS011;74611;53.106;8.778;2024-03-22T08:30:24;19.50;;;7.28;;
84412;SDS011;74611;53.106;8.778;2024-03-22T08:32:50;22.40;;;6.72;;
84412;SDS011;74611;53.106;8.778;2024-03-22T08:35:18;19.50;;;7.35;;
84412;SDS011;74611;53.106;8.778;2024-03-22T08:37:44;22.83;;;7.25;;
84412;SDS011;74611;53.106;8.778;2024-03-22T08:40:10;21.10;;;7.25;;
84412;SDS011;74611;53.106;8.778;2024-03-22T08:42:36;17.33;;;6.20;;
84412;SDS011;74611;53.106;8.778;2024-03-22T08:45:02;21.65;;;6.97;;
84412;SDS011;74611;53.106;8.778;2024-03-22T08:47:29;26.80;;;7.75;;
84412;SDS011;74611;53.106;8.778;2024-03-22T08:49:55;17.48;;;6.97;;
84412;SDS011;74611;53.106;8.778;2024-03-22T08:52:22;24.13;;;7.20;;
84412;SDS011;74611;53.106;8.778;2024-03-22T08:54:50;20.55;;;6.88;;
84412;SDS011;74611;53.106;8.778;2024-03-22T08:57:16;22.67;;;7.93;;
84412;SDS011;74611;53.106;8.778;2024-03-22T08:59:41;20.05;;;7.60;;
84412;SDS011;74611;53.106;8.778;2024-03-22T09:02:07;16.55;;;6.15;;
84412;SDS011;74611;53.106;8.778;2024-03-22T09:04:32;19.13;;;6.18;;
84412;SDS011;74611;53.106;8.778;2024-03-22T09:06:58;26.25;;;7.93;;
84412;SDS011;74611;53.106;8.778;2024-03-22T09:09:24;21.85;;;6.65;;
84412;SDS011;74611;53.106;8.778;2024-03-22T09:11:49;18.55;;;7.13;;
84412;SDS011;74611;53.106;8.778;2024-03-22T09:14:15;19.42;;;6.78;;
84412;SDS011;74611;53.106;8.778;2024-03-22T09:16:42;21.83;;;7.25;;
84412;SDS011;74611;53.106;8.778;2024-03-22T09:19:07;22.65;;;7.20;;
84412;SDS011;74611;53.106;8.778;2024-03-22T09:21:33;21.38;;;5.63;;
84412;SDS011;74611;53.106;8.778;2024-03-22T09:23:59;20.25;;;7.85;;
84412;SDS011;74611;53.106;8.778;2024-03-22T09:26:24;14.60;;;6.03;;
84412;SDS011;74611;53.106;8.778;2024-03-22T09:28:51;18.75;;;6.78;;
84412;SDS011;74611;53.106;8.778;2024-03-22T09:31:16;16.85;;;5.45;;
84412;SDS011;74611;53.106;8.778;2024-03-22T09:33:42;17.98;;;6.57;;
84412;SDS011;74611;53.106;8.778;2024-03-22T09:36:08;19.77;;;6.40;;
84412;SDS011;74611;53.106;8.778;2024-03-22T09:38:34;19.38;;;6.47;;
84412;SDS011;74611;53.106;8.778;2024-03-22T09:40:59;18.60;;;6.22;;
84412;SDS011;74611;53.106;8.778;2024-03-22T09:43:26;11.20;;;4.32;;
84412;SDS011;74611;53.106;8.778;2024-03-22T09:45:53;20.80;;;5.18;;
84412;SDS011;74611;53.106;8.778;2024-03-22T09:48:20;20.13;;;6.30;;
84412;SDS011;74611;53.106;8.778;2024-03-22T09:50:46;21.02;;;5.47;;
84412;SDS011;74611;53.106;8.778;2024-03-22T09:53:18;17.77;;;4.78;;
84412;SDS011;74611;53.106;8.778;2024-03-22T09:55:46;10.77;;;4.55;;
84412;SDS011;74611;53.106;8.778;2024-03-22T09:58:12;14.50;;;5.30;;
84412;SDS011;74611;53.106;8.778;2024-03-22T10:00:38;14.32;;;5.55;;
84412;SDS011;74611;53.106;8.778;2024-03-22T10:03:04;15.55;;;5.10;;
84412;SDS011;74611;53.106;8.778;2024-03-22T10:05:33;16.55;;;5.78;;
84412;SDS011;74611;53.106;8.778;2024-03-22T10:07:59;15.27;;;5.75;;
84412;SDS011;74611;53.106;8.778;2024-03-22T10:10:24;15.27;;;5.43;;
84412;SDS011;74611;53.106;8.778;2024-03-22T10:12:50;10.63;;;3.78;;
84412;SDS011;74611;53.106;8.778;2024-03-22T10:15:18;12.43;;;4.18;;
84412;SDS011;74611;53.106;8.778;2024-03-22T10:17:44;16.38;;;5.35;;
84412;SDS011;74611;53.106;8.778;2024-03-22T10:20:12;12.40;;;4.35;;
84412;SDS011;74611;53.106;8.778;2024-03-22T10:22:58;16.50;;;4.85;;
84412;SDS011;74611;53.106;8.778;2024-03-22T10:25:27;10.27;;;3.50;;
84412;SDS011;74611;53.106;8.778;2024-03-22T10:27:54;16.30;;;4.85;;
84412;SDS011;74611;53.106;8.778;2024-03-22T10:30:20;17.55;;;5.20;;
84412;SDS011;74611;53.106;8.778;2024-03-22T10:32:47;12.88;;;4.70;;
84412;SDS011;74611;53.106;8.778;2024-03-22T10:35:14;9.93;;;3.78;;
84412;SDS011;74611;53.106;8.778;2024-03-22T10:37:40;11.27;;;3.88;;
84412;SDS011;74611;53.106;8.778;2024-03-22T10:40:07;15.80;;;4.35;;
84412;SDS011;74611;53.106;8.778;2024-03-22T10:42:36;11.48;;;4.57;;
84412;SDS011;74611;53.106;8.778;2024-03-22T10:45:06;15.45;;;5.13;;
84412;SDS011;74611;53.106;8.778;2024-03-22T10:47:34;13.30;;;3.90;;
84412;SDS011;74611;53.106;8.778;2024-03-22T10:52:36;12.77;;;4.32;;
84412;SDS011;74611;53.106;8.778;2024-03-22T10:55:05;13.10;;;4.22;;
84412;SDS011;74611;53.106;8.778;2024-03-22T10:57:33;10.30;;;3.72;;
84412;SDS011;74611;53.106;8.778;2024-03-22T11:00:11;11.65;;;3.80;;
84412;SDS011;74611;53.106;8.778;2024-03-22T11:02:37;12.57;;;4.35;;
84412;SDS011;74611;53.106;8.778;2024-03-22T11:05:03;10.43;;;3.90;;
84412;SDS011;74611;53.106;8.778;2024-03-22T11:07:30;10.13;;;2.97;;
84412;SDS011;74611;53.106;8.778;2024-03-22T11:09:57;10.02;;;3.30;;
84412;SDS011;74611;53.106;8.778;2024-03-22T11:12:27;11.07;;;3.58;;
84412;SDS011;74611;53.106;8.778;2024-03-22T11:14:53;10.80;;;3.35;;
84412;SDS011;74611;53.106;8.778;2024-03-22T11:17:19;9.93;;;3.30;;
84412;SDS011;74611;53.106;8.778;2024-03-22T11:19:50;7.53;;;2.67;;
84412;SDS011;74611;53.106;8.778;2024-03-22T11:22:17;9.00;;;3.20;;
84412;SDS011;74611;53.106;8.778;2024-03-22T11:24:43;8.32;;;2.83;;
84412;SDS011;74611;53.106;8.778;2024-03-22T11:27:09;9.30;;;3.05;;
84412;SDS011;74611;53.106;8.778;2024-03-22T11:29:37;5.20;;;1.95;;
84412;SDS011;74611;53.106;8.778;2024-03-22T11:32:11;8.00;;;2.72;;
84412;SDS011;74611;53.106;8.778;2024-03-22T11:34:37;7.70;;;2.67;;
84412;SDS011;74611;53.106;8.778;2024-03-22T11:37:05;7.47;;;2.42;;
84412;SDS011;74611;53.106;8.778;2024-03-22T11:39:38;7.07;;;2.72;;
84412;SDS011;74611;53.106;8.778;2024-03-22T11:42:04;9.40;;;2.60;;
84412;SDS011;74611;53.106;8.778;2024-03-22T11:44:35;7.80;;;2.40;;
84412;SDS011;74611;53.106;8.778;2024-03-22T11:47:03;10.18;;;3.35;;
84412;SDS011;74611;53.106;8.778;2024-03-22T11:49:29;8.32;;;1.88;;
84412;SDS011;74611;53.106;8.778;2024-03-22T11:51:58;7.55;;;2.20;;
84412;SDS011;74611;53.106;8.778;2024-03-22T11:54:23;9.95;;;2.53;;
84412;SDS011;74611;53.106;8.778;2024-03-22T11:56:49;7.45;;;2.60;;
84412;SDS011;74611;53.106;8.778;2024-03-22T11:59:15;10.25;;;2.50;;
84412;SDS011;74611;53.106;8.778;2024-03-22T12:01:44;7.07;;;2.45;;
84412;SDS011;74611;53.106;8.778;2024-03-22T12:04:09;9.10;;;2.90;;
84412;SDS011;74611;53.106;8.778;2024-03-22T12:06:42;6.45;;;2.20;;
84412;SDS011;74611;53.106;8.778;2024-03-22T12:09:08;4.40;;;1.52;;
84412;SDS011;74611;53.106;8.778;2024-03-22T12:11:36;3.60;;;1.15;;
84412;SDS011;74611;53.106;8.778;2024-03-22T12:14:01;4.53;;;1.67;;
84412;SDS011;74611;53.106;8.778;2024-03-22T12:16:27;8.73;;;2.15;;
84412;SDS011;74611;53.106;8.778;2024-03-22T12:18:52;5.20;;;2.13;;
84412;SDS011;74611;53.106;8.778;2024-03-22T12:21:18;5.00;;;1.92;;
84412;SDS011;74611;53.106;8.778;2024-03-22T12:23:44;3.95;;;1.38;;
84412;SDS011;74611;53.106;8.778;2024-03-22T12:26:09;4.88;;;1.80;;
84412;SDS011;74611;53.106;8.778;2024-03-22T12:28:35;7.47;;;2.13;;
84412;SDS011;74611;53.106;8.778;2024-03-22T12:31:00;5.65;;;1.90;;
84412;SDS011;74611;53.106;8.778;2024-03-22T12:33:26;6.53;;;2.13;;
84412;SDS011;74611;53.106;8.778;2024-03-22T12:35:51;7.05;;;1.83;;
84412;SDS011;74611;53.106;8.778;2024-03-22T12:40:43;4.32;;;1.38;;
84412;SDS011;74611;53.106;8.778;2024-03-22T12:43:09;3.53;;;1.17;;
84412;SDS011;74611;53.106;8.778;2024-03-22T12:45:36;6.43;;;1.73;;
84412;SDS011;74611;53.106;8.778;2024-03-22T12:48:02;7.75;;;1.55;;
84412;SDS011;74611;53.106;8.778;2024-03-22T12:50:27;5.07;;;1.40;;
84412;SDS011;74611;53.106;8.778;2024-03-22T12:52:53;6.07;;;1.45;;
84412;SDS011;74611;53.106;8.778;2024-03-22T12:55:19;4.68;;;1.40;;
84412;SDS011;74611;53.106;8.778;2024-03-22T12:57:44;7.00;;;1.95;;
84412;SDS011;74611;53.106;8.778;2024-03-22T13:00:10;4.53;;;1.42;;
84412;SDS011;74611;53.106;8.778;2024-03-22T13:05:09;3.50;;;1.27;;
84412;SDS011;74611;53.106;8.778;2024-03-22T13:07:35;2.67;;;0.82;;
84412;SDS011;74611;53.106;8.778;2024-03-22T13:10:01;2.45;;;1.10;;
84412;SDS011;74611;53.106;8.778;2024-03-22T13:12:27;3.25;;;1.20;;
84412;SDS011;74611;53.106;8.778;2024-03-22T13:14:56;4.45;;;1.15;;
84412;SDS011;74611;53.106;8.778;2024-03-22T13:17:21;3.38;;;1.20;;
84412;SDS011;74611;53.106;8.778;2024-03-22T13:19:47;2.50;;;0.95;;
84412;SDS011;74611;53.106;8.778;2024-03-22T13:22:13;3.30;;;0.98;;
84412;SDS011;74611;53.106;8.778;2024-03-22T13:24:43;3.63;;;1.00;;
84412;SDS011;74611;53.106;8.778;2024-03-22T13:27:12;3.20;;;1.00;;
84412;SDS011;74611;53.106;8.778;2024-03-22T13:29:38;3.10;;;1.00;;
84412;SDS011;74611;53.106;8.778;2024-03-22T13:32:07;3.58;;;1.00;;
84412;SDS011;74611;53.106;8.778;2024-03-22T13:34:36;3.78;;;1.00;;
84412;SDS011;74611;53.106;8.778;2024-03-22T13:37:02;4.05;;;0.95;;
84412;SDS011;74611;53.106;8.778;2024-03-22T13:39:28;2.58;;;0.80;;
84412;SDS011;74611;53.106;8.778;2024-03-22T13:41:56;3.80;;;1.23;;
84412;SDS011;74611;53.106;8.778;2024-03-22T13:44:22;2.90;;;0.80;;
84412;SDS011;74611;53.106;8.778;2024-03-22T13:46:49;3.42;;;0.90;;
84412;SDS011;74611;53.106;8.778;2024-03-22T13:49:16;2.35;;;0.88;;
84412;SDS011;74611;53.106;8.778;2024-03-22T13:51:45;2.17;;;0.80;;
84412;SDS011;74611;53.106;8.778;2024-03-22T13:54:12;2.42;;;0.68;;
84412;SDS011;74611;53.106;8.778;2024-03-22T13:56:37;2.00;;;0.60;;
84412;SDS011;74611;53.106;8.778;2024-03-22T13:59:03;2.92;;;0.75;;
84412;SDS011;74611;53.106;8.778;2024-03-22T14:01:34;2.97;;;0.98;;
84412;SDS011;74611;53.106;8.778;2024-03-22T14:04:01;2.28;;;0.90;;
84412;SDS011;74611;53.106;8.778;2024-03-22T14:06:28;2.42;;;0.65;;
84412;SDS011;74611;53.106;8.778;2024-03-22T14:08:55;2.25;;;0.70;;
84412;SDS011;74611;53.106;8.778;2024-03-22T14:11:25;1.90;;;0.70;;
84412;SDS011;74611;53.106;8.778;2024-03-22T14:13:52;1.52;;;0.52;;
84412;SDS011;74611;53.106;8.778;2024-03-22T14:16:17;2.00;;;0.47;;
84412;SDS011;74611;53.106;8.778;2024-03-22T14:18:43;1.45;;;0.52;;
84412;SDS011;74611;53.106;8.778;2024-03-22T14:21:08;2.47;;;0.60;;
84412;SDS011;74611;53.106;8.778;2024-03-22T14:23:34;2.17;;;0.70;;
84412;SDS011;74611;53.106;8.778;2024-03-22T14:25:59;1.60;;;0.50;;
84412;SDS011;74611;53.106;8.778;2024-03-22T14:28:25;1.90;;;0.50;;
84412;SDS011;74611;53.106;8.778;2024-03-22T14:30:50;1.35;;;0.47;;
84412;SDS011;74611;53.106;8.778;2024-03-22T14:33:16;3.10;;;0.40;;
84412;SDS011;74611;53.106;8.778;2024-03-22T14:35:42;1.98;;;0.75;;
84412;SDS011;74611;53.106;8.778;2024-03-22T14:38:09;1.60;;;0.55;;
84412;SDS011;74611;53.106;8.778;2024-03-22T14:40:34;2.72;;;0.70;;
84412;SDS011;74611;53.106;8.778;2024-03-22T14:43:02;2.47;;;0.50;;